createdAt,value
2023-04-23T00:00:58.846Z,13.27
2023-04-23T00:05:52.891Z,12.55
2023-04-23T00:10:47.696Z,14.05
2023-04-23T00:15:41.647Z,11.93
2023-04-23T00:20:36.276Z,13.18
2023-04-23T00:25:29.529Z,13.13
2023-04-23T00:30:23.616Z,14.88
2023-04-23T00:35:16.570Z,13.18
2023-04-23T00:40:12.686Z,13.52
2023-04-23T00:45:06.461Z,12.98
2023-04-23T00:50:01.148Z,12.98
2023-04-23T00:54:53.756Z,13.07
2023-04-23T00:59:47.073Z,12.93
2023-04-23T01:04:41.401Z,13.43
2023-04-23T01:09:35.246Z,12.90
2023-04-23T01:14:28.280Z,12.32
2023-04-23T01:19:21.304Z,12.30
2023-04-23T01:24:15.949Z,12.40
2023-04-23T01:29:08.693Z,12.90
2023-04-23T01:34:01.701Z,13.57
2023-04-23T01:38:53.977Z,12.40
2023-04-23T01:43:47.437Z,12.05
2023-04-23T01:48:40.257Z,12.35
2023-04-23T01:53:34.138Z,11.82
2023-04-23T01:58:27.163Z,11.50
2023-04-23T02:03:20.570Z,11.07
2023-04-23T02:08:14.107Z,11.23
2023-04-23T02:13:08.026Z,11.02
2023-04-23T02:18:01.142Z,11.02
2023-04-23T02:22:53.595Z,11.57
2023-04-23T02:27:46.236Z,10.05
2023-04-23T02:32:39.679Z,11.07
2023-04-23T02:37:33.332Z,10.02
2023-04-23T02:42:26.112Z,10.52
2023-04-23T02:47:18.940Z,10.52
2023-04-23T02:52:12.480Z,10.80
2023-04-23T02:57:06.414Z,10.02
2023-04-23T03:02:00.830Z,10.10
2023-04-23T03:06:53.868Z,10.20
2023-04-23T03:11:47.962Z,9.85
2023-04-23T03:16:41.463Z,9.75
2023-04-23T03:21:35.905Z,10.05
2023-04-23T03:26:28.363Z,10.95
2023-04-23T03:31:21.922Z,10.00
2023-04-23T03:36:15.999Z,11.23
2023-04-23T03:41:09.691Z,11.10
2023-04-23T03:46:05.801Z,12.40
2023-04-23T03:51:02.904Z,13.07
2023-04-23T03:56:04.798Z,12.93
2023-04-23T04:01:02.990Z,13.90
2023-04-23T04:05:56.764Z,13.45
2023-04-23T04:10:53.744Z,13.18
2023-04-23T04:15:48.213Z,14.63
2023-04-23T04:20:44.304Z,14.23
2023-04-23T04:25:40.191Z,13.38
2023-04-23T04:30:33.899Z,13.45
2023-04-23T04:35:27.854Z,15.02
2023-04-23T04:40:21.170Z,13.85
2023-04-23T04:45:14.254Z,14.07
2023-04-23T04:50:11.142Z,12.40
2023-04-23T04:55:05.690Z,14.52
2023-04-23T04:59:59.703Z,14.23
2023-04-23T05:04:53.417Z,15.85
2023-04-23T05:09:46.266Z,14.70
2023-04-23T05:14:40.421Z,14.93
2023-04-23T05:19:35.193Z,15.98
2023-04-23T05:24:28.362Z,15.38
2023-04-23T05:29:21.508Z,15.27
2023-04-23T05:34:15.378Z,16.23
2023-04-23T05:39:09.398Z,16.08
2023-04-23T05:44:02.860Z,14.60
2023-04-23T05:48:56.469Z,17.35
2023-04-23T05:53:49.953Z,16.48
2023-04-23T05:58:42.354Z,16.90
2023-04-23T06:03:37.266Z,15.60
2023-04-23T06:08:31.243Z,17.70
2023-04-23T06:13:24.029Z,19.75
2023-04-23T06:18:17.415Z,20.08
2023-04-23T06:23:10.605Z,22.55
2023-04-23T06:28:03.748Z,22.52
2023-04-23T06:33:05.696Z,20.13
2023-04-23T06:37:59.509Z,21.52
2023-04-23T06:42:53.579Z,20.70
2023-04-23T06:48:04.708Z,22.95
2023-04-23T06:52:58.945Z,25.77
2023-04-23T06:57:54.018Z,26.52
2023-04-23T07:02:47.528Z,29.45
2023-04-23T07:07:43.722Z,27.88
2023-04-23T07:12:38.505Z,25.33
2023-04-23T07:17:32.309Z,25.83
2023-04-23T07:22:27.350Z,22.95
2023-04-23T07:27:22.097Z,22.98
2023-04-23T07:32:15.675Z,21.05
2023-04-23T07:37:09.150Z,21.50
2023-04-23T07:42:03.152Z,19.85
2023-04-23T07:46:57.749Z,22.67
2023-04-23T07:51:51.105Z,19.75
2023-04-23T07:56:44.423Z,19.92
2023-04-23T08:01:37.782Z,19.23
2023-04-23T08:06:33.965Z,18.83
2023-04-23T08:11:26.912Z,17.95
2023-04-23T08:16:20.528Z,16.35
2023-04-23T08:21:14.501Z,15.18
2023-04-23T08:26:08.941Z,15.35
2023-04-23T08:31:09.469Z,12.23
2023-04-23T08:36:10.167Z,12.07
2023-04-23T08:41:07.621Z,10.55
2023-04-23T08:46:07.097Z,10.57
2023-04-23T08:51:00.143Z,11.30
2023-04-23T08:55:53.969Z,9.82
2023-04-23T09:00:48.717Z,9.90
2023-04-23T09:05:43.354Z,9.07
2023-04-23T09:10:40.527Z,7.88
2023-04-23T09:15:40.862Z,6.90
2023-04-23T09:20:35.325Z,7.57
2023-04-23T09:25:30.022Z,7.50
2023-04-23T09:30:25.732Z,7.07
2023-04-23T09:35:22.100Z,6.50
2023-04-23T09:45:15.295Z,6.93
2023-04-23T09:50:10.941Z,5.90
2023-04-23T09:55:05.790Z,5.90
2023-04-23T10:00:11.022Z,5.90
2023-04-23T10:05:24.851Z,5.70
2023-04-23T10:10:23.405Z,5.07
2023-04-23T10:15:17.500Z,4.55
2023-04-23T10:20:13.110Z,4.70
2023-04-23T10:25:10.255Z,5.10
2023-04-23T10:30:06.145Z,5.70
2023-04-23T10:34:59.809Z,4.95
2023-04-23T10:39:56.523Z,3.72
2023-04-23T10:44:59.447Z,3.25
2023-04-23T10:49:56.566Z,2.92
2023-04-23T10:54:53.198Z,2.88
2023-04-23T10:59:55.868Z,3.13
2023-04-23T11:04:57.943Z,3.67
2023-04-23T11:09:50.368Z,5.00
2023-04-23T11:14:46.552Z,5.75
2023-04-23T11:19:41.167Z,5.85
2023-04-23T11:24:37.900Z,5.87
2023-04-23T11:29:31.103Z,6.32
2023-04-23T11:34:26.432Z,4.65
2023-04-23T11:39:20.178Z,4.80
2023-04-23T11:44:13.389Z,3.75
2023-04-23T11:49:07.450Z,3.45
2023-04-23T11:54:05.230Z,4.05
2023-04-23T11:59:05.586Z,4.40
2023-04-23T12:03:59.488Z,5.13
2023-04-23T12:08:52.782Z,4.57
2023-04-23T12:13:46.770Z,5.70
2023-04-23T12:18:44.695Z,4.72
2023-04-23T12:23:42.801Z,3.97
2023-04-23T12:28:46.713Z,4.32
2023-04-23T12:33:44.832Z,3.67
2023-04-23T12:38:40.996Z,3.00
2023-04-23T12:43:33.886Z,3.93
2023-04-23T12:48:27.440Z,4.70
2023-04-23T12:53:20.871Z,3.85
2023-04-23T12:58:15.216Z,4.40
2023-04-23T13:03:09.078Z,4.00
2023-04-23T13:08:03.441Z,5.22
2023-04-23T13:12:58.465Z,5.55
2023-04-23T13:17:52.036Z,6.00
2023-04-23T13:22:46.891Z,4.88
2023-04-23T13:27:41.366Z,4.60
2023-04-23T13:32:35.374Z,5.35
2023-04-23T13:37:32.006Z,5.10
2023-04-23T13:42:25.185Z,5.20
2023-04-23T13:47:18.086Z,4.70
2023-04-23T13:52:12.238Z,5.28
2023-04-23T13:57:05.457Z,5.05
2023-04-23T14:01:58.447Z,4.28
2023-04-23T14:06:52.662Z,5.15
2023-04-23T14:11:46.368Z,5.20
2023-04-23T14:16:40.455Z,4.13
2023-04-23T14:21:32.975Z,5.57
2023-04-23T14:31:28.037Z,5.47
2023-04-23T14:36:22.164Z,4.40
2023-04-23T14:41:15.852Z,4.00
2023-04-23T14:46:10.659Z,5.40
2023-04-23T14:51:03.840Z,5.05
2023-04-23T14:55:57.857Z,4.72
2023-04-23T15:00:52.645Z,4.15
2023-04-23T15:05:46.460Z,4.20
2023-04-23T15:10:39.173Z,4.03
2023-04-23T15:15:44.309Z,4.43
2023-04-23T15:20:38.992Z,4.25
2023-04-23T15:25:33.817Z,4.35
2023-04-23T15:30:27.020Z,4.18
2023-04-23T15:35:20.976Z,3.72
2023-04-23T15:40:14.499Z,6.00
2023-04-23T15:45:09.068Z,3.88
2023-04-23T15:50:02.900Z,4.30
2023-04-23T15:54:56.156Z,4.07
2023-04-23T15:59:50.479Z,4.50
2023-04-23T16:04:44.402Z,4.20
2023-04-23T16:09:37.840Z,4.07
2023-04-23T16:14:31.120Z,3.90
2023-04-23T16:19:24.331Z,5.25
2023-04-23T16:24:19.452Z,5.43
2023-04-23T16:34:11.357Z,6.28
2023-04-23T16:39:05.574Z,7.25
2023-04-23T16:44:00.466Z,7.28
2023-04-23T16:48:53.855Z,6.28
2023-04-23T16:53:47.509Z,6.53
2023-04-23T16:58:41.584Z,8.15
2023-04-23T17:03:37.497Z,6.35
2023-04-23T17:08:31.258Z,2.70
2023-04-23T17:13:25.486Z,4.15
2023-04-23T17:18:18.767Z,2.35
2023-04-23T17:23:13.219Z,6.93
2023-04-23T17:28:08.089Z,2.17
2023-04-23T17:33:01.294Z,2.33
2023-04-23T17:37:54.951Z,2.35
2023-04-23T17:42:47.551Z,1.90
2023-04-23T17:47:41.040Z,6.45
2023-04-23T17:52:34.870Z,2.45
2023-04-23T17:57:28.773Z,7.15
2023-04-23T18:02:22.604Z,4.80
2023-04-23T18:07:16.995Z,2.70
2023-04-23T18:12:11.285Z,3.08
2023-04-23T18:17:05.126Z,9.18
2023-04-23T18:22:02.661Z,4.15
2023-04-23T18:26:58.572Z,3.78
2023-04-23T18:31:52.968Z,3.10
2023-04-23T18:36:51.194Z,5.82
2023-04-23T18:41:45.206Z,3.40
2023-04-23T18:46:40.607Z,1.92
2023-04-23T18:51:46.449Z,2.03
2023-04-23T18:56:40.152Z,1.92
2023-04-23T19:01:33.957Z,2.22
2023-04-23T19:06:27.481Z,1.60
2023-04-23T19:11:22.270Z,1.65
2023-04-23T19:16:17.616Z,2.03
2023-04-23T19:21:10.948Z,1.92
2023-04-23T19:26:04.369Z,3.15
2023-04-23T19:30:58.722Z,2.80
2023-04-23T19:35:51.426Z,1.95
2023-04-23T19:40:45.007Z,2.47
2023-04-23T19:45:39.226Z,1.92
2023-04-23T19:50:32.236Z,1.92
2023-04-23T19:55:27.426Z,1.90
2023-04-23T20:00:21.149Z,1.80
2023-04-23T20:05:16.162Z,1.50
2023-04-23T20:10:11.107Z,2.30
2023-04-23T20:15:05.870Z,1.80
2023-04-23T20:20:02.248Z,3.25
2023-04-23T20:24:55.872Z,2.13
2023-04-23T20:29:49.295Z,2.67
2023-04-23T20:34:42.806Z,2.20
2023-04-23T20:39:38.384Z,1.90
2023-04-23T20:44:32.193Z,1.92
2023-04-23T20:49:26.591Z,1.90
2023-04-23T20:54:20.459Z,1.80
2023-04-23T20:59:15.422Z,2.00
2023-04-23T21:04:08.516Z,1.70
2023-04-23T21:09:02.162Z,1.92
2023-04-23T21:13:56.838Z,1.77
2023-04-23T21:18:51.900Z,2.30
2023-04-23T21:23:45.084Z,2.25
2023-04-23T21:28:39.078Z,2.35
2023-04-23T21:33:33.264Z,2.10
2023-04-23T21:38:26.404Z,1.90
2023-04-23T21:43:19.484Z,2.80
2023-04-23T21:48:13.611Z,1.95
2023-04-23T21:53:07.462Z,2.35
2023-04-23T21:58:16.521Z,2.35
2023-04-23T22:03:12.319Z,2.45
2023-04-23T22:08:10.012Z,2.45
2023-04-23T22:13:03.996Z,2.40
2023-04-23T22:18:01.441Z,2.60
2023-04-23T22:22:54.873Z,2.40
2023-04-23T22:27:47.122Z,2.95
2023-04-23T22:32:41.590Z,2.90
2023-04-23T22:37:35.831Z,2.97
2023-04-23T22:42:30.478Z,3.17
2023-04-23T22:47:24.913Z,3.10
2023-04-23T22:52:21.085Z,3.20
2023-04-23T22:57:14.393Z,2.55
2023-04-23T23:02:08.762Z,2.97
2023-04-23T23:07:02.798Z,2.88
2023-04-23T23:11:56.046Z,2.80
2023-04-23T23:16:49.173Z,2.45
2023-04-23T23:21:42.095Z,2.63
2023-04-23T23:26:35.389Z,3.90
2023-04-23T23:31:28.925Z,3.13
2023-04-23T23:36:22.456Z,3.10
2023-04-23T23:41:15.532Z,3.22
2023-04-23T23:46:09.650Z,3.85
2023-04-23T23:51:03.001Z,4.63
2023-04-23T23:55:57.075Z,4.60
